Somerset, PA

12:29 AM EST on November 24, 2014 (GMT -0500)
APRSWXNET Somerset PA US | Change Station
CLOSE
Current Station
Personal Weather Station
Location: Somerset, PA
Elevation: 2149 ft
Nearby Weather Stations
Active Advisory: Wind Advisory

Elev 2149 ft 39.99 °N, 79.09 °W | Updated 1 hour ago

Light Rain
Light Rain
48.0 °F
Feels Like 44 °F
N
9.0
Wind Variable Wind from East
Gusts 24.0 mph

Today
High -- | Low -- °F
--% Chance of Precip.
Yesterday
High -- | Low -- °F
Precip. -- in
7:11 AM 4:54 PM
Waxing Crescent, 4% visible
Pressure 29.63 in
Visibility 7.0 miles
Clouds Mostly Cloudy 700 ft
Overcast 1500 ft
Windchill 44 °F
Dew Point 48.0 °F
Humidity 100%
Rainfall -999.00 in
Snow Depth Not available.
UV 0 out of 12
Pollen .10 out of 12
Air Quality Not available.
Flu Activity Not available.
METAR KJST 240454Z AUTO 14016G24KT 7SM -RA BKN007 OVC015 08/06 A2962 RMK AO2 PK WND 12027/0434 SLP033 P0007 T00780061 401500067

More Conditions Fewer Conditions

Pressure 29.63 in
Visibility 7.0 miles
Clouds Mostly Cloudy 700 ft
Overcast 1500 ft
Windchill 44 °F
Dew Point 48.0 °F
Humidity 100%
Rainfall -999.00 in
Snow Depth Not available.
UV 0 out of 12
Pollen .10 out of 12
Air Quality Not available.
Flu Activity Not available.
METAR KJST 240454Z AUTO 14016G24KT 7SM -RA BKN007 OVC015 08/06 A2962 RMK AO2 PK WND 12027/0434 SLP033 P0007 T00780061 401500067

More Conditions Fewer Conditions

Nowcast | as of 11:26 PM EST on November 23, 2014

Rain will taper off across the area around 2 or 3 am.

×

10-Day Weather Forecast

Almanac

Astronomy

Nov. 24, 2014 Rise Set
Actual Time
Civil Twilight
Nautical Twilight
Astronomical Twilight
Moon
Length of Visible Light
Length of Day
Tomorrow will be .
, % of the Moon is Illuminated

Today's Extremes

State Highs State Lows

Community

WunderPhotos

Upload Photos

1,773,269 photos uploaded!

WunderBlogs® & News

Nearby

Air Quality

  Air Quality AQ Index Pollutant
Not available.

Snow Depth

Station Depth Elevation

Earthquake Activity

City Distance Mag. Time & Date
Minimum magnitude displayed is 2.5.

Coastal Water Temperatures

Place Temperature

Nearby Weather Stations